Antoine Voisn

Antoine Voisn

Statistiques 2019

  • Courses courues : 148
  • Nb de victoires : 6
  • Nb de places : 29
  • Écart gagnant : 16
  • Réussite à la gagne : 4%
  • Réussite à la place : 20%
Musique : 4m Dm Dm 5m 7m 2m Distm 6m Dm Dm 3m 4m 8m 3m 8m 5m 1m 2m
DateRangCatégorieAlloc.Dist.HippodromeChevalRed. KmSpé.
19/10/19 4 Trot 41 000€ 2 450m Caen Art d'Erable 1'12"3 Monté
19/10/19 D Trot 20 000€ 2 450m Caen Florette de Blary Monté
17/10/19 D Trot 49 000€ 2 900m Enghien Soisy Chic Et Belle Monté lire

Jamais en course, a été sanctionnée à la fin du premier tour.

16/10/19 5 Trot 27 000€ 2 775m Les Sables D'Olonne Baron de Majuag 1'17"8 Monté
14/10/19 7 Trot 19 000€ 2 750m Cabourg Estil d'Ostal 1'16"0 Monté
13/10/19 2 Trot 13 000€ 2 700m Graignes Flash Dangueville 1'17"3 Monté
10/10/19 Dist Trot 49 000€ 2 250m Enghien Soisy Danseur Baroque Monté lire

Après avoir figuré, a marqué le pas dans la phase finale puis a été distancé

09/10/19 6 Trot 52 000€ 2 875m Enghien Soisy Art d'Erable 1'14"8 Monté lire

Après avoir figuré, n'a pu véritablement changer de rythme pour finir.

07/10/19 D Trot 34 000€ 2 875m Enghien Soisy Dax Gede Monté lire

Longtemps en queue de peloton, s'est désuni au début du dernier tour.

06/10/19 D Trot 16 000€ 2 750m Angouleme Derby d'Aze Monté
05/10/19 3 Trot 27 000€ 2 450m Caen Cosmopolite Seven 1'15"0 Monté
04/10/19 4 Trot 18 000€ 2 875m Laval Follow Vet 1'16"0 Monté
03/10/19 8 Trot 29 000€ 2 750m Cabourg Doria Raudiere 1'14"9 Monté
02/10/19 3 Trot 17 000€ 2 875m Meslay Du Maine Diego Nay 1'15"9 Monté lire

Après avoir figuré au sein du peloton, a progressé dans le tournant final avant de bien terminer.

01/10/19 8 Trot 37 000€ 2 200m Vincennes Dream de Morgane 1'14"4 Monté lire

N'a été qu'un simple figurant au sein du peloton.

01/10/19 5 Trot 60 000€ 2 175m Vincennes Banjo de la Noemie 1'12"7 Monté lire

Après avoir évolué en retrait, a conclu fort honorablement.

30/09/19 1 Trot 34 000€ 2 875m Enghien Soisy Douchka Wind 1'15"1 Monté lire

Longtemps au sein du peloton, s'est assurée le meilleur dans le tournant final, avant de se montrer la plus forte.

29/09/19 2 Trot 18 000€ 2 700m Machecoul Cohibo 1'17"1 Monté
29/09/19 7 Trot 12 000€ 2 700m Machecoul Fier des Tithais 1'22"4 Monté
29/09/19 7 Trot 12 000€ 2 700m Machecoul Forbele du Loulay 1'22"8 Monté
28/09/19 6 Trot 27 000€ 2 825m Le Croise Laroche Cigale d'Arry 1'17"2 Monté
28/09/19 D Trot 20 000€ 2 825m Le Croise Laroche Elitesnabe Monté
25/09/19 0 Trot 15 000€ 2 775m Les Sables D'Olonne Fantastica Monesto Monté
25/09/19 0 Trot 14 000€ 2 775m Les Sables D'Olonne Dolce du Plessis Monté
23/09/19 0 Trot 17 000€ 2 475m Caen Falbala d'Em Monté
23/09/19 8 Trot 17 000€ 2 475m Caen Delle du Luot 1'14"9 Monté
23/09/19 0 Trot 15 000€ 2 450m Caen Eclair d'Attaque Monté
22/09/19 3 Trot 19 000€ 2 600m Savenay Cosmopolite Seven Monté
21/09/19 4 Trot 25 000€ 2 800m Chartres Cadol de la Noemie 1'15"9 Monté
21/09/19 9 Trot 15 000€ 2 800m Chartres Eminent Sky 1'19"7 Monté
19/09/19 1 Trot 46 000€ 2 875m Vincennes Bettina de Tillard 1'14"7 Monté lire

Après avoir figuré au sein du peloton, a su se montrer la plus forte pour finir.

15/09/19 D Trot 20 000€ 2 850m Mauquenchy Derby d'Aze Monté
15/09/19 1 Trot 18 000€ 2 850m Mauquenchy Follow Vet 1'17"1 Monté
13/09/19 7 Trot 19 000€ 2 875m Laval Cosmopolite Seven 1'15"2 Monté
11/09/19 3 Trot 27 000€ 2 775m Les Sables D'Olonne Baron de Majuag 1'15"1 Monté
07/09/19 8 Trot 15 000€ 3 250m Saint Ouen Des Toits De Kervilou TNC Monté
06/09/19 7 Trot 34 000€ 2 850m Vincennes Dream de Morgane 1'14"8 Monté lire

Après avoir figuré, a été progressivement dominé pour finir.

02/09/19 0 Trot 16 000€ 2 450m Caen Etang de Vrie Monté
01/09/19 1 Mixte 15 000€ 3 125m Nort Sur Erdre Cosmopolite Seven TNC Monté
28/08/19 4 Trot 14 000€ 2 775m Les Sables D'Olonne Cohibo 1'16"4 Monté
26/08/19 D Trot 18 000€ 2 875m Laval Derby d'Aze Monté
26/08/19 0 Trot 31 000€ 2 875m Laval Varus du Guinoux Monté
25/08/19 6 Trot 14 000€ 3 100m Vibraye Envol Fleuri Monté
24/08/19 D Trot 15 000€ 2 775m Les Sables D'Olonne Elia de la Noemie Monté
24/08/19 0 Mixte 13 000€ 2 425m Beaupreau Cadol de la Noemie Monté
24/08/19 D Mixte 11 000€ 2 400m Beaupreau Feminine du Vernet Monté
22/08/19 9 Trot 16 000€ 2 600m Montignac Birene du Goutier Monté
21/08/19 4 Trot 31 000€ 2 775m Les Sables D'Olonne Cosmopolite Seven 1'15"4 Monté
18/08/19 5 Trot 15 000€ 3 225m Blain Best Reiter Monté
17/08/19 D Trot 51 000€ 2 175m Vincennes Coq de l'Inam Monté lire

A rapidement été sanctionné.